createdAt,value
2023-05-15T00:00:22.646Z,80.67
2023-05-15T00:01:26.978Z,80.65
2023-05-15T00:02:31.342Z,80.58
2023-05-15T00:03:35.787Z,80.50
2023-05-15T00:04:40.205Z,80.61
2023-05-15T00:05:44.416Z,80.70
2023-05-15T00:06:48.740Z,80.64
2023-05-15T00:07:53.055Z,80.65
2023-05-15T00:08:57.360Z,80.62
2023-05-15T00:10:15.797Z,80.69
2023-05-15T00:11:19.141Z,80.58
2023-05-15T00:12:23.458Z,80.58
2023-05-15T00:13:27.741Z,80.58
2023-05-15T00:14:32.149Z,80.46
2023-05-15T00:15:36.493Z,80.39
2023-05-15T00:16:40.970Z,80.33
2023-05-15T00:17:45.272Z,80.28
2023-05-15T00:18:49.547Z,80.22
2023-05-15T00:19:53.751Z,80.18
2023-05-15T00:20:58.171Z,80.13
2023-05-15T00:22:02.487Z,80.18
2023-05-15T00:23:06.842Z,80.15
2023-05-15T00:24:11.186Z,80.25
2023-05-15T00:25:15.518Z,80.18
2023-05-15T00:26:19.769Z,80.10
2023-05-15T00:27:24.158Z,80.12
2023-05-15T00:28:28.547Z,79.99
2023-05-15T00:29:32.872Z,79.94
2023-05-15T00:30:37.192Z,79.93
2023-05-15T00:31:41.523Z,79.94
2023-05-15T00:32:45.865Z,79.86
2023-05-15T00:33:50.188Z,79.83
2023-05-15T00:34:54.557Z,79.81
2023-05-15T00:35:58.904Z,79.74
2023-05-15T00:37:03.233Z,79.79
2023-05-15T00:38:07.491Z,79.79
2023-05-15T00:39:11.844Z,79.78
2023-05-15T00:40:16.180Z,79.78
2023-05-15T00:41:20.614Z,79.79
2023-05-15T00:42:24.973Z,79.78
2023-05-15T00:43:29.340Z,79.81
2023-05-15T00:44:33.694Z,79.79
2023-05-15T00:45:38.071Z,79.85
2023-05-15T00:46:42.435Z,79.86
2023-05-15T00:47:46.901Z,79.87
2023-05-15T00:48:51.080Z,79.96
2023-05-15T00:49:55.359Z,79.96
2023-05-15T00:51:02.801Z,80.03
2023-05-15T00:52:06.271Z,80.02
2023-05-15T00:53:10.534Z,79.98
2023-05-15T00:54:15.011Z,80.03
2023-05-15T00:55:22.416Z,80.18
2023-05-15T00:56:25.681Z,80.40
2023-05-15T00:57:29.994Z,80.44
2023-05-15T00:58:34.412Z,80.37
2023-05-15T00:59:38.656Z,80.29
2023-05-15T01:00:43.131Z,80.24
2023-05-15T01:01:47.451Z,80.22
2023-05-15T01:02:51.765Z,80.21
2023-05-15T01:03:56.120Z,80.19
2023-05-15T01:05:00.369Z,80.17
2023-05-15T01:06:04.761Z,80.15
2023-05-15T01:07:09.192Z,80.15
2023-05-15T01:08:13.380Z,80.15
2023-05-15T01:09:17.685Z,80.16
2023-05-15T01:10:22.074Z,80.14
2023-05-15T01:11:26.450Z,80.12
2023-05-15T01:12:36.714Z,80.13
2023-05-15T01:13:39.740Z,80.19
2023-05-15T01:14:44.082Z,80.22
2023-05-15T01:15:48.288Z,80.24
2023-05-15T01:16:52.707Z,80.25
2023-05-15T01:17:57.098Z,80.27
2023-05-15T01:19:01.343Z,80.28
2023-05-15T01:20:05.782Z,80.28
2023-05-15T01:21:10.043Z,80.34
2023-05-15T01:22:14.408Z,80.34
2023-05-15T01:23:18.716Z,80.36
2023-05-15T01:24:23.017Z,80.37
2023-05-15T01:25:27.496Z,80.42
2023-05-15T01:26:37.655Z,80.44
2023-05-15T01:27:40.678Z,80.61
2023-05-15T01:28:44.996Z,80.69
2023-05-15T01:29:49.396Z,80.71
2023-05-15T01:30:53.723Z,80.73
2023-05-15T01:31:58.093Z,80.74
2023-05-15T01:33:02.336Z,80.77
2023-05-15T01:34:06.630Z,80.97
2023-05-15T01:35:10.949Z,81.34
2023-05-15T01:36:15.381Z,81.47
2023-05-15T01:37:19.684Z,81.48
2023-05-15T01:38:24.063Z,81.51
2023-05-15T01:39:28.398Z,81.64
2023-05-15T01:40:32.745Z,81.78
2023-05-15T01:41:37.136Z,81.73
2023-05-15T01:42:41.479Z,81.92
2023-05-15T01:43:45.849Z,82.16
2023-05-15T01:44:50.227Z,82.13
2023-05-15T01:45:54.587Z,82.19
2023-05-15T01:46:58.851Z,82.20
2023-05-15T01:48:03.394Z,82.17
2023-05-15T01:49:07.565Z,82.20
2023-05-15T01:50:11.890Z,82.24
2023-05-15T01:51:30.314Z,82.18
2023-05-15T01:52:33.599Z,82.02
2023-05-15T01:53:37.936Z,81.94
2023-05-15T01:54:42.214Z,81.92
2023-05-15T01:55:46.505Z,81.84
2023-05-15T01:56:50.847Z,81.81
2023-05-15T01:57:55.232Z,81.97
2023-05-15T01:58:59.583Z,82.26
2023-05-15T02:00:03.875Z,82.76
2023-05-15T02:01:08.178Z,83.30
2023-05-15T02:02:12.515Z,83.53
2023-05-15T02:03:16.906Z,84.04
2023-05-15T02:04:21.114Z,84.21
2023-05-15T02:05:25.798Z,84.41
2023-05-15T02:06:29.726Z,84.56
2023-05-15T02:07:34.145Z,84.77
2023-05-15T02:08:38.315Z,85.02
2023-05-15T02:09:42.710Z,84.98
2023-05-15T02:10:46.959Z,85.10
2023-05-15T02:11:51.387Z,85.04
2023-05-15T02:12:55.695Z,85.13
2023-05-15T02:13:59.964Z,85.11
2023-05-15T02:15:04.255Z,85.10
2023-05-15T02:16:08.748Z,85.04
2023-05-15T02:17:16.018Z,85.13
2023-05-15T02:18:19.484Z,85.06
2023-05-15T02:19:23.812Z,85.09
2023-05-15T02:20:28.053Z,85.00
2023-05-15T02:21:32.431Z,84.96
2023-05-15T02:22:36.705Z,85.03
2023-05-15T02:23:41.010Z,85.06
2023-05-15T02:24:45.309Z,85.07
2023-05-15T02:25:49.721Z,85.09
2023-05-15T02:26:53.998Z,85.19
2023-05-15T02:27:58.412Z,85.22
2023-05-15T02:29:02.765Z,85.23
2023-05-15T02:30:07.073Z,85.37
2023-05-15T02:31:11.436Z,85.60
2023-05-15T02:32:15.829Z,85.78
2023-05-15T02:33:19.941Z,85.74
2023-05-15T02:34:24.436Z,85.73
2023-05-15T02:35:28.696Z,85.78
2023-05-15T02:36:33.009Z,85.72
2023-05-15T02:37:37.389Z,85.79
2023-05-15T02:38:41.626Z,85.79
2023-05-15T02:39:46.059Z,85.75
2023-05-15T02:40:50.346Z,85.67
2023-05-15T02:41:54.685Z,85.58
2023-05-15T02:42:58.957Z,85.59
2023-05-15T02:44:03.330Z,85.57
2023-05-15T02:45:07.690Z,85.54
2023-05-15T02:46:12.119Z,85.38
2023-05-15T02:47:16.450Z,85.44
2023-05-15T02:48:20.693Z,85.56
2023-05-15T02:49:25.069Z,85.44
2023-05-15T02:50:29.325Z,85.50
2023-05-15T02:51:33.702Z,85.47
2023-05-15T02:52:37.912Z,85.53
2023-05-15T02:53:42.341Z,85.61
2023-05-15T02:54:46.626Z,85.64
2023-05-15T02:55:51.091Z,85.56
2023-05-15T02:56:55.425Z,85.47
2023-05-15T02:57:59.794Z,85.52
2023-05-15T02:59:03.947Z,85.55
2023-05-15T03:00:08.286Z,85.62
2023-05-15T03:01:12.734Z,85.75
2023-05-15T03:02:16.884Z,85.76
2023-05-15T03:03:21.361Z,85.68
2023-05-15T03:04:25.694Z,85.63
2023-05-15T03:05:30.042Z,85.42
2023-05-15T03:06:34.313Z,85.25
2023-05-15T03:07:41.670Z,85.15
2023-05-15T03:08:45.128Z,85.05
2023-05-15T03:09:49.363Z,84.92
2023-05-15T03:10:53.600Z,84.84
2023-05-15T03:11:57.907Z,85.05
2023-05-15T03:13:02.292Z,85.21
2023-05-15T03:14:06.635Z,85.08
2023-05-15T03:15:10.920Z,84.94
2023-05-15T03:16:15.453Z,84.89
2023-05-15T03:17:19.658Z,84.77
2023-05-15T03:18:24.026Z,84.69
2023-05-15T03:19:28.237Z,84.64
2023-05-15T03:20:32.659Z,84.57
2023-05-15T03:21:37.020Z,84.54
2023-05-15T03:22:41.288Z,84.50
2023-05-15T03:23:45.701Z,84.42
2023-05-15T03:24:50.036Z,84.34
2023-05-15T03:25:54.409Z,84.30
2023-05-15T03:26:58.771Z,84.26
2023-05-15T03:28:03.143Z,84.42
2023-05-15T03:29:07.431Z,84.72
2023-05-15T03:30:11.687Z,85.18
2023-05-15T03:31:16.047Z,85.48
2023-05-15T03:32:20.291Z,85.38
2023-05-15T03:33:24.721Z,85.67
2023-05-15T03:34:29.014Z,85.89
2023-05-15T03:35:33.364Z,86.21
2023-05-15T03:36:37.706Z,86.39
2023-05-15T03:37:41.998Z,86.56
2023-05-15T03:38:46.401Z,86.86
2023-05-15T03:39:50.793Z,87.41
2023-05-15T03:40:55.106Z,87.72
2023-05-15T03:41:59.357Z,87.85
2023-05-15T03:43:03.687Z,87.91
2023-05-15T03:44:07.988Z,88.00
2023-05-15T03:45:12.270Z,88.03
2023-05-15T03:46:16.683Z,87.99
2023-05-15T03:47:20.991Z,87.80
2023-05-15T03:48:25.391Z,87.57
2023-05-15T03:49:29.712Z,87.67
2023-05-15T03:50:33.970Z,87.48
2023-05-15T03:51:38.308Z,87.33
2023-05-15T03:52:42.717Z,87.14
2023-05-15T03:54:01.046Z,86.96
2023-05-15T03:55:04.488Z,86.79
2023-05-15T03:56:08.712Z,86.64
2023-05-15T03:57:12.945Z,86.50
2023-05-15T03:58:17.303Z,86.35
2023-05-15T03:59:21.570Z,86.27
2023-05-15T04:00:26.288Z,86.17
2023-05-15T04:01:30.367Z,86.08
2023-05-15T04:02:34.700Z,86.00
2023-05-15T04:03:38.897Z,85.92
2023-05-15T04:04:43.200Z,85.86
2023-05-15T04:05:47.561Z,85.82
2023-05-15T04:06:51.967Z,85.78
2023-05-15T04:08:02.230Z,85.71
2023-05-15T04:09:05.349Z,85.69
2023-05-15T04:10:09.583Z,85.70
2023-05-15T04:11:13.941Z,85.94
2023-05-15T04:12:18.279Z,86.19
2023-05-15T04:13:22.524Z,86.39
2023-05-15T04:14:26.932Z,86.63
2023-05-15T04:15:31.242Z,86.83
2023-05-15T04:16:35.635Z,87.10
2023-05-15T04:17:39.910Z,87.29
2023-05-15T04:18:50.256Z,87.62
2023-05-15T04:19:53.235Z,87.96
2023-05-15T04:20:57.546Z,88.40
2023-05-15T04:22:01.912Z,88.64
2023-05-15T04:23:06.011Z,88.97
2023-05-15T04:24:10.402Z,89.23
2023-05-15T04:25:14.892Z,89.50
2023-05-15T04:26:19.096Z,89.69
2023-05-15T04:27:23.367Z,89.81
2023-05-15T04:28:28.748Z,89.90
2023-05-15T04:29:31.988Z,90.09
2023-05-15T04:30:36.382Z,90.19
2023-05-15T04:31:40.598Z,90.21
2023-05-15T04:32:44.982Z,90.30
2023-05-15T04:33:51.266Z,90.39
2023-05-15T04:34:53.623Z,90.47
2023-05-15T04:35:57.992Z,90.43
2023-05-15T04:37:02.349Z,90.46
2023-05-15T04:39:34.011Z,90.79
2023-05-15T04:40:38.294Z,91.00
2023-05-15T04:41:42.596Z,91.11
2023-05-15T04:42:46.876Z,91.20
2023-05-15T04:43:51.288Z,91.29
2023-05-15T04:44:55.444Z,91.44
2023-05-15T04:45:59.894Z,91.47
2023-05-15T04:47:04.193Z,91.50
2023-05-15T04:48:08.622Z,91.61
2023-05-15T04:49:12.820Z,91.76
2023-05-15T04:50:17.142Z,91.94
2023-05-15T04:51:21.436Z,92.19
2023-05-15T04:52:25.771Z,92.29
2023-05-15T04:53:30.088Z,92.32
2023-05-15T04:54:34.407Z,92.57
2023-05-15T04:55:38.797Z,92.60
2023-05-15T04:56:43.193Z,92.63
2023-05-15T04:57:47.367Z,92.54
2023-05-15T04:58:51.774Z,92.55
2023-05-15T04:59:56.018Z,92.37
2023-05-15T05:01:03.526Z,92.35
2023-05-15T05:02:04.846Z,92.21
2023-05-15T05:03:09.208Z,92.14
2023-05-15T05:04:13.488Z,91.97
2023-05-15T05:05:17.781Z,91.73
2023-05-15T05:06:22.120Z,91.55
2023-05-15T05:07:26.506Z,91.36
2023-05-15T05:08:30.829Z,91.42
2023-05-15T05:09:35.155Z,91.58
2023-05-15T05:10:39.576Z,91.63
2023-05-15T05:11:43.852Z,91.59
2023-05-15T05:12:48.387Z,91.53
2023-05-15T05:13:52.705Z,91.51
2023-05-15T05:14:57.026Z,91.46
2023-05-15T05:16:01.249Z,91.39
2023-05-15T05:17:05.625Z,91.41
2023-05-15T05:18:09.950Z,91.40
2023-05-15T05:19:14.288Z,91.58
2023-05-15T05:20:18.509Z,91.69
2023-05-15T05:21:22.818Z,91.75
2023-05-15T05:22:27.134Z,91.67
2023-05-15T05:23:31.460Z,91.63
2023-05-15T05:24:35.873Z,91.61
2023-05-15T05:25:40.235Z,91.73
2023-05-15T05:28:11.765Z,91.90
2023-05-15T05:29:16.062Z,91.88
2023-05-15T05:30:20.196Z,92.00
2023-05-15T05:31:24.669Z,92.08
2023-05-15T05:32:28.971Z,92.13
2023-05-15T05:33:33.390Z,92.19
2023-05-15T05:34:37.712Z,92.21
2023-05-15T05:35:42.062Z,92.38
2023-05-15T05:36:46.374Z,92.37
2023-05-15T05:37:50.674Z,92.39
2023-05-15T05:38:55.051Z,92.27
2023-05-15T05:39:59.410Z,92.28
2023-05-15T05:41:03.850Z,92.18
2023-05-15T05:42:08.078Z,92.25
2023-05-15T05:43:12.386Z,92.30
2023-05-15T05:44:16.693Z,92.32
2023-05-15T05:45:21.091Z,92.37
2023-05-15T05:46:25.400Z,92.39
2023-05-15T05:47:29.829Z,92.31
2023-05-15T05:48:34.218Z,92.29
2023-05-15T05:49:38.489Z,92.21
2023-05-15T05:50:42.888Z,92.07
2023-05-15T05:51:47.212Z,92.03
2023-05-15T05:52:51.644Z,92.02
2023-05-15T05:53:55.966Z,92.08
2023-05-15T05:55:00.262Z,92.11
2023-05-15T05:57:32.095Z,91.97
2023-05-15T05:58:36.290Z,91.75
2023-05-15T05:59:40.708Z,91.34
2023-05-15T06:00:51.088Z,91.00
2023-05-15T06:01:54.161Z,90.70
2023-05-15T06:02:58.558Z,90.47
2023-05-15T06:04:02.876Z,90.11
2023-05-15T06:05:07.137Z,90.04
2023-05-15T06:06:11.561Z,90.14
2023-05-15T06:07:15.927Z,90.01
2023-05-15T06:08:20.291Z,89.64
2023-05-15T06:09:24.597Z,89.52
2023-05-15T06:10:29.110Z,89.16
2023-05-15T06:11:33.416Z,88.81
2023-05-15T06:12:51.661Z,88.53
2023-05-15T06:13:54.592Z,88.35
2023-05-15T06:14:58.951Z,88.27
2023-05-15T06:16:03.266Z,88.14
2023-05-15T06:17:07.738Z,88.13
2023-05-15T06:18:12.054Z,87.83
2023-05-15T06:19:16.311Z,87.64
2023-05-15T06:20:20.672Z,87.42
2023-05-15T06:21:25.077Z,87.16
2023-05-15T06:22:29.565Z,87.09
2023-05-15T06:23:33.988Z,87.14
2023-05-15T06:24:38.359Z,87.10
2023-05-15T06:25:42.600Z,86.92
2023-05-15T06:26:47.085Z,86.84
2023-05-15T06:27:51.444Z,86.64
2023-05-15T06:29:09.893Z,86.43
2023-05-15T06:30:13.078Z,86.08
2023-05-15T06:31:17.546Z,85.82
2023-05-15T06:32:21.754Z,85.77
2023-05-15T06:33:26.162Z,85.42
2023-05-15T06:34:30.415Z,85.44
2023-05-15T06:35:34.894Z,85.41
2023-05-15T06:36:39.212Z,85.31
2023-05-15T06:37:43.568Z,85.22
2023-05-15T06:38:48.014Z,85.43
2023-05-15T06:39:58.373Z,85.63
2023-05-15T06:41:01.496Z,85.40
2023-05-15T06:42:05.842Z,85.05
2023-05-15T06:43:10.179Z,84.65
2023-05-15T06:44:14.734Z,84.13
2023-05-15T06:45:19.411Z,83.55
2023-05-15T06:46:23.700Z,83.17
2023-05-15T06:47:28.160Z,82.92
2023-05-15T06:48:32.515Z,82.90
2023-05-15T06:49:36.935Z,82.98
2023-05-15T06:50:41.385Z,83.19
2023-05-15T06:51:45.805Z,83.18
2023-05-15T06:52:50.123Z,83.21
2023-05-15T06:53:54.503Z,82.75
2023-05-15T06:54:58.991Z,82.17
2023-05-15T06:56:03.285Z,82.17
2023-05-15T06:57:07.773Z,82.22
2023-05-15T06:58:12.190Z,81.69
2023-05-15T06:59:16.667Z,81.73
2023-05-15T07:00:21.023Z,81.87
2023-05-15T07:01:25.607Z,81.76
2023-05-15T07:02:29.936Z,82.03
2023-05-15T07:03:34.200Z,82.18
2023-05-15T07:04:38.793Z,82.06
2023-05-15T07:05:43.137Z,81.48
2023-05-15T07:06:47.435Z,80.62
2023-05-15T07:07:51.898Z,79.79
2023-05-15T07:09:02.361Z,79.53
2023-05-15T07:10:05.426Z,79.45
2023-05-15T07:11:09.790Z,80.03
2023-05-15T07:12:14.309Z,80.46
2023-05-15T07:13:32.624Z,80.02
2023-05-15T07:14:35.922Z,80.36
2023-05-15T07:15:54.362Z,80.56
2023-05-15T07:16:57.861Z,80.31
2023-05-15T07:18:02.056Z,79.46
2023-05-15T07:19:20.435Z,79.01
2023-05-15T07:20:25.858Z,78.40
2023-05-15T07:21:28.142Z,78.58
2023-05-15T07:22:32.914Z,78.58
2023-05-15T07:23:36.946Z,78.75
2023-05-15T07:24:41.380Z,78.71
2023-05-15T07:25:46.152Z,79.06
2023-05-15T07:26:58.061Z,79.41
2023-05-15T07:27:54.502Z,79.40
2023-05-15T07:28:58.946Z,79.27
2023-05-15T07:30:03.389Z,79.29
2023-05-15T07:31:21.795Z,79.61
2023-05-15T07:32:25.355Z,79.42
2023-05-15T07:33:32.386Z,79.24
2023-05-15T07:34:35.945Z,79.15
2023-05-15T07:35:40.240Z,79.38
2023-05-15T07:36:44.691Z,79.77
2023-05-15T07:37:49.112Z,79.81
2023-05-15T07:39:07.668Z,79.63
2023-05-15T07:40:10.905Z,79.66
2023-05-15T07:41:18.295Z,79.62
2023-05-15T07:42:21.832Z,79.89
2023-05-15T07:43:26.160Z,79.50
2023-05-15T07:44:30.650Z,79.04
2023-05-15T07:45:35.122Z,78.77
2023-05-15T07:46:39.431Z,78.47
2023-05-15T07:47:44.028Z,78.44
2023-05-15T07:48:48.258Z,78.81
2023-05-15T07:49:52.675Z,78.72
2023-05-15T07:50:57.197Z,78.47
2023-05-15T07:52:01.530Z,78.57
2023-05-15T07:53:05.919Z,78.48
2023-05-15T07:54:10.307Z,78.35
2023-05-15T07:55:14.693Z,78.54
2023-05-15T07:56:19.013Z,78.82
2023-05-15T07:57:23.485Z,78.98
2023-05-15T07:58:27.879Z,79.01
2023-05-15T07:59:32.402Z,78.94
2023-05-15T08:00:36.649Z,78.79
2023-05-15T08:01:41.056Z,78.55
2023-05-15T08:02:45.518Z,78.30
2023-05-15T08:03:50.105Z,78.37
2023-05-15T08:04:54.476Z,78.33
2023-05-15T08:05:58.866Z,77.31
2023-05-15T08:07:03.307Z,77.17
2023-05-15T08:08:07.690Z,77.20
2023-05-15T08:09:12.117Z,77.08
2023-05-15T08:10:16.529Z,77.17
2023-05-15T08:11:20.934Z,77.39
2023-05-15T08:12:25.379Z,77.36
2023-05-15T08:13:29.879Z,77.26
2023-05-15T08:14:34.311Z,77.29
2023-05-15T08:15:38.826Z,77.33
2023-05-15T08:16:43.111Z,77.57
2023-05-15T08:18:01.753Z,77.54
2023-05-15T08:19:05.389Z,77.41
2023-05-15T08:20:09.443Z,76.85
2023-05-15T08:21:13.918Z,76.67
2023-05-15T08:22:19.346Z,76.86
2023-05-15T08:23:23.350Z,77.38
2023-05-15T08:24:27.834Z,77.72
2023-05-15T08:25:32.367Z,77.76
2023-05-15T08:26:36.676Z,77.70
2023-05-15T08:27:44.088Z,77.42
2023-05-15T08:28:47.694Z,76.74
2023-05-15T08:29:52.103Z,76.64
2023-05-15T08:30:56.556Z,76.70
2023-05-15T08:32:01.007Z,76.75
2023-05-15T08:33:05.389Z,77.38
2023-05-15T08:34:09.799Z,77.42
2023-05-15T08:35:17.142Z,77.67
2023-05-15T08:36:20.702Z,76.16
2023-05-15T08:37:31.023Z,76.00
2023-05-15T08:38:34.118Z,75.17
2023-05-15T08:39:38.401Z,73.97
2023-05-15T08:40:42.812Z,73.69
2023-05-15T08:41:47.284Z,74.97
2023-05-15T08:42:51.717Z,74.66
2023-05-15T08:43:56.252Z,74.64
2023-05-15T08:45:00.591Z,74.63
2023-05-15T08:46:04.999Z,73.84
2023-05-15T08:47:09.534Z,74.53
2023-05-15T08:48:14.047Z,74.29
2023-05-15T08:49:18.414Z,74.05
2023-05-15T08:50:22.808Z,74.28
2023-05-15T08:51:27.273Z,73.65
2023-05-15T08:52:31.606Z,73.50
2023-05-15T08:53:36.120Z,73.15
2023-05-15T08:54:40.448Z,73.74
2023-05-15T08:55:44.910Z,74.45
2023-05-15T08:56:49.332Z,75.01
2023-05-15T08:57:53.807Z,75.01
2023-05-15T08:58:58.229Z,74.69
2023-05-15T09:00:02.613Z,74.52
2023-05-15T09:01:07.122Z,74.00
2023-05-15T09:02:11.490Z,72.77
2023-05-15T09:03:15.956Z,72.92
2023-05-15T09:04:20.410Z,73.77
2023-05-15T09:05:25.070Z,74.40
2023-05-15T09:06:29.212Z,75.06
2023-05-15T09:07:33.521Z,75.17
2023-05-15T09:08:37.935Z,75.55
2023-05-15T09:09:42.466Z,75.16
2023-05-15T09:10:53.006Z,74.74
2023-05-15T09:11:56.024Z,75.01
2023-05-15T09:13:00.467Z,74.99
2023-05-15T09:14:04.832Z,74.63
2023-05-15T09:15:23.296Z,74.95
2023-05-15T09:16:29.715Z,74.16
2023-05-15T09:17:33.201Z,73.47
2023-05-15T09:18:37.493Z,72.72
2023-05-15T09:19:41.910Z,70.95
2023-05-15T09:20:46.356Z,70.97
2023-05-15T09:21:50.766Z,71.40
2023-05-15T09:22:55.142Z,71.92
2023-05-15T09:23:59.505Z,72.51
2023-05-15T09:25:07.045Z,72.13
2023-05-15T09:26:10.616Z,71.79
2023-05-15T09:27:15.060Z,72.06
2023-05-15T09:28:19.494Z,71.78
2023-05-15T09:29:23.836Z,70.87
2023-05-15T09:30:28.329Z,72.04
2023-05-15T09:31:32.784Z,72.19
2023-05-15T09:32:37.345Z,71.57
2023-05-15T09:33:41.582Z,71.23
2023-05-15T09:34:46.095Z,71.37
2023-05-15T09:35:50.646Z,71.21
2023-05-15T09:36:55.012Z,71.73
2023-05-15T09:37:59.449Z,71.59
2023-05-15T09:39:03.943Z,71.08
2023-05-15T09:40:08.351Z,71.00
2023-05-15T09:41:12.723Z,71.76
2023-05-15T09:42:17.099Z,71.02
2023-05-15T09:43:21.608Z,70.43
2023-05-15T09:45:53.608Z,68.58
2023-05-15T09:46:58.053Z,67.47
2023-05-15T09:48:02.268Z,67.53
2023-05-15T09:49:06.689Z,67.66
2023-05-15T09:50:11.104Z,67.60
2023-05-15T09:51:15.629Z,67.45
2023-05-15T09:52:34.115Z,67.76
2023-05-15T09:53:43.510Z,67.25
2023-05-15T09:54:48.173Z,66.27
2023-05-15T09:55:50.930Z,66.44
2023-05-15T09:56:55.267Z,67.62
2023-05-15T09:57:59.672Z,68.11
2023-05-15T09:59:04.100Z,68.35
2023-05-15T10:00:08.517Z,68.69
2023-05-15T10:01:12.996Z,68.57
2023-05-15T10:02:17.384Z,67.37
2023-05-15T10:03:21.720Z,68.00
2023-05-15T10:04:26.128Z,67.86
2023-05-15T10:06:35.189Z,65.69
2023-05-15T10:07:39.653Z,64.06
2023-05-15T10:08:44.050Z,63.42
2023-05-15T10:09:48.504Z,64.23
2023-05-15T10:10:52.856Z,65.30
2023-05-15T10:11:57.284Z,65.94
2023-05-15T10:13:01.724Z,65.19
2023-05-15T10:14:20.118Z,65.25
2023-05-15T10:15:23.635Z,64.87
2023-05-15T10:16:28.009Z,64.62
2023-05-15T10:17:32.398Z,64.97
2023-05-15T10:18:36.772Z,64.93
2023-05-15T10:19:57.134Z,63.79
2023-05-15T10:21:04.285Z,63.63
2023-05-15T10:22:07.657Z,63.90
2023-05-15T10:23:12.101Z,63.77
2023-05-15T10:24:16.472Z,63.65
2023-05-15T10:25:20.854Z,63.92
2023-05-15T10:26:25.385Z,64.19
2023-05-15T10:27:35.723Z,64.40
2023-05-15T10:28:38.886Z,64.64
2023-05-15T10:29:43.268Z,63.78
2023-05-15T10:30:47.687Z,62.88
2023-05-15T10:31:52.247Z,63.43
2023-05-15T10:32:56.715Z,63.79
2023-05-15T10:34:01.000Z,64.22
2023-05-15T10:35:05.537Z,63.83
2023-05-15T10:36:09.984Z,63.40
2023-05-15T10:37:14.367Z,63.17
2023-05-15T10:38:18.731Z,63.66
2023-05-15T10:39:23.212Z,63.79
2023-05-15T10:40:41.767Z,61.72
2023-05-15T10:41:45.098Z,61.48
2023-05-15T10:42:49.635Z,61.47
2023-05-15T10:43:54.070Z,60.69
2023-05-15T10:44:58.480Z,60.53
2023-05-15T10:46:02.912Z,60.46
2023-05-15T10:47:07.399Z,60.94
2023-05-15T10:48:11.762Z,62.12
2023-05-15T10:49:16.224Z,62.95
2023-05-15T10:50:23.888Z,63.49
2023-05-15T10:51:27.346Z,63.72
2023-05-15T10:52:31.760Z,63.88
2023-05-15T10:53:36.220Z,63.32
2023-05-15T10:54:40.692Z,63.59
2023-05-15T10:55:45.211Z,63.19
2023-05-15T10:56:55.585Z,62.46
2023-05-15T10:57:58.776Z,62.96
2023-05-15T10:59:03.044Z,62.95
2023-05-15T11:00:07.427Z,61.76
2023-05-15T11:01:11.835Z,61.83
2023-05-15T11:02:30.602Z,62.10
2023-05-15T11:03:48.690Z,61.61
2023-05-15T11:04:43.024Z,60.38
2023-05-15T11:05:47.248Z,59.65
2023-05-15T11:06:51.724Z,60.31
2023-05-15T11:08:10.165Z,60.36
2023-05-15T11:09:13.409Z,59.51
2023-05-15T11:10:17.708Z,59.34
2023-05-15T11:11:28.133Z,58.60
2023-05-15T11:12:31.282Z,59.78
2023-05-15T11:13:35.695Z,60.83
2023-05-15T11:14:40.155Z,61.70
2023-05-15T11:15:44.591Z,62.06
2023-05-15T11:16:49.046Z,62.23
2023-05-15T11:17:53.396Z,62.18
2023-05-15T11:18:58.847Z,61.31
2023-05-15T11:20:02.789Z,59.86
2023-05-15T11:21:07.281Z,59.47
2023-05-15T11:22:11.634Z,61.02
2023-05-15T11:23:30.092Z,61.30
2023-05-15T11:24:33.503Z,61.17
2023-05-15T11:25:37.825Z,59.66
2023-05-15T11:26:42.184Z,59.43
2023-05-15T11:27:46.677Z,58.63
2023-05-15T11:28:51.036Z,58.68
2023-05-15T11:29:55.533Z,60.00
2023-05-15T11:31:00.083Z,57.64
2023-05-15T11:32:18.485Z,58.94
2023-05-15T11:33:21.968Z,59.85
2023-05-15T11:34:26.344Z,59.73
2023-05-15T11:35:30.750Z,59.63
2023-05-15T11:36:36.399Z,58.89
2023-05-15T11:37:39.760Z,57.06
2023-05-15T11:38:44.296Z,57.36
2023-05-15T11:39:48.773Z,56.09
2023-05-15T11:40:53.226Z,56.23
2023-05-15T11:41:59.211Z,55.94
2023-05-15T11:43:02.089Z,54.88
2023-05-15T11:44:20.589Z,55.00
2023-05-15T11:45:24.091Z,56.22
2023-05-15T11:46:31.423Z,56.02
2023-05-15T11:47:35.013Z,56.93
2023-05-15T11:48:45.415Z,56.09
2023-05-15T11:49:48.458Z,56.24
2023-05-15T11:50:52.920Z,56.28
2023-05-15T11:51:57.255Z,55.79
2023-05-15T11:53:01.697Z,55.80
2023-05-15T11:54:08.007Z,55.86
2023-05-15T11:55:10.662Z,56.26
2023-05-15T11:56:14.996Z,57.94
2023-05-15T11:57:22.413Z,59.32
2023-05-15T11:58:26.007Z,60.62
2023-05-15T11:59:30.360Z,61.48
2023-05-15T12:00:34.789Z,62.17
2023-05-15T12:01:39.279Z,62.84
2023-05-15T12:02:49.733Z,63.52
2023-05-15T12:03:52.859Z,64.60
2023-05-15T12:05:03.127Z,65.14
2023-05-15T12:06:06.101Z,65.46
2023-05-15T12:07:10.555Z,65.62
2023-05-15T12:08:14.896Z,64.61
2023-05-15T12:10:46.726Z,61.33
2023-05-15T12:11:51.136Z,61.44
2023-05-15T12:12:55.395Z,60.46
2023-05-15T12:13:59.857Z,59.87
2023-05-15T12:15:04.225Z,59.34
2023-05-15T12:16:08.764Z,59.41
2023-05-15T12:17:27.193Z,58.69
2023-05-15T12:18:36.561Z,57.28
2023-05-15T12:19:53.686Z,57.67
2023-05-15T12:21:13.067Z,58.53
2023-05-15T12:22:22.650Z,57.90
2023-05-15T12:23:25.720Z,57.84
2023-05-15T12:24:30.032Z,57.97
2023-05-15T12:25:34.454Z,58.16
2023-05-15T12:26:38.818Z,59.11
2023-05-15T12:27:57.256Z,59.96
2023-05-15T12:29:00.813Z,61.02
2023-05-15T12:30:08.119Z,61.68
2023-05-15T12:31:11.595Z,62.99
2023-05-15T12:32:16.100Z,64.74
2023-05-15T12:33:23.470Z,65.72
2023-05-15T12:34:27.017Z,66.89
2023-05-15T12:35:31.531Z,67.89
2023-05-15T12:36:35.779Z,68.49
2023-05-15T12:37:40.243Z,69.17
2023-05-15T12:38:44.658Z,69.69
2023-05-15T12:39:55.006Z,70.24
2023-05-15T12:41:12.037Z,70.60
2023-05-15T12:42:15.483Z,71.27
2023-05-15T12:43:19.762Z,70.99
2023-05-15T12:44:24.167Z,71.97
2023-05-15T12:45:28.467Z,72.36
2023-05-15T12:46:33.009Z,72.15
2023-05-15T12:47:37.390Z,71.97
2023-05-15T12:48:41.792Z,71.72
2023-05-15T12:49:46.196Z,71.61
2023-05-15T12:50:50.624Z,71.59
2023-05-15T12:51:55.025Z,71.44
2023-05-15T12:52:59.426Z,71.43
2023-05-15T12:54:03.773Z,71.45
2023-05-15T12:55:08.160Z,71.43
2023-05-15T12:56:26.602Z,71.27
2023-05-15T12:57:29.928Z,70.92
2023-05-15T12:58:34.251Z,70.41
2023-05-15T12:59:38.551Z,70.29
2023-05-15T13:00:42.958Z,70.63
2023-05-15T13:01:50.498Z,70.72
2023-05-15T13:02:54.032Z,71.37
2023-05-15T13:03:58.419Z,71.52
2023-05-15T13:05:02.710Z,71.85
2023-05-15T13:06:07.142Z,71.92
2023-05-15T13:07:11.573Z,72.31
2023-05-15T13:08:15.954Z,72.84
2023-05-15T13:09:20.263Z,73.27
2023-05-15T13:10:24.995Z,73.94
2023-05-15T13:11:29.102Z,74.17
2023-05-15T13:12:33.545Z,74.31
2023-05-15T13:13:37.990Z,75.16
2023-05-15T13:14:42.392Z,75.66
2023-05-15T13:15:46.890Z,75.83
2023-05-15T13:16:51.074Z,76.32
2023-05-15T13:17:55.569Z,76.96
2023-05-15T13:18:59.970Z,77.00
2023-05-15T13:20:04.246Z,77.29
2023-05-15T13:21:08.652Z,77.43
2023-05-15T13:22:13.014Z,77.24
2023-05-15T13:23:17.487Z,77.87
2023-05-15T13:24:21.907Z,78.25
2023-05-15T13:25:32.559Z,78.16
2023-05-15T13:26:35.648Z,78.53
2023-05-15T13:27:39.965Z,78.48
2023-05-15T13:28:44.382Z,78.92
2023-05-15T13:29:48.775Z,78.81
2023-05-15T13:30:53.085Z,79.08
2023-05-15T13:31:57.647Z,79.35
2023-05-15T13:33:02.899Z,79.63
2023-05-15T13:34:06.863Z,79.33
2023-05-15T13:35:11.283Z,79.34
2023-05-15T13:36:15.650Z,80.40
2023-05-15T13:37:20.167Z,80.77
2023-05-15T13:38:24.512Z,80.76
2023-05-15T13:39:28.841Z,80.55
2023-05-15T13:40:33.282Z,80.88
2023-05-15T13:41:37.724Z,80.46
2023-05-15T13:42:42.144Z,80.44
2023-05-15T13:43:46.412Z,80.72
2023-05-15T13:44:50.837Z,80.89
2023-05-15T13:45:55.262Z,80.52
2023-05-15T13:46:59.652Z,80.30
2023-05-15T13:48:04.077Z,80.61
2023-05-15T13:49:08.348Z,80.66
2023-05-15T13:50:12.795Z,80.88
2023-05-15T13:51:17.198Z,80.97
2023-05-15T13:52:21.662Z,80.91
2023-05-15T13:53:26.030Z,80.85
2023-05-15T13:54:30.448Z,80.72
2023-05-15T13:55:34.879Z,80.47
2023-05-15T13:56:39.267Z,80.49
2023-05-15T13:57:43.771Z,80.68
2023-05-15T13:58:48.247Z,80.57
2023-05-15T13:59:52.582Z,80.39
2023-05-15T14:00:57.002Z,80.20
2023-05-15T14:02:01.465Z,80.30
2023-05-15T14:03:05.931Z,80.42
2023-05-15T14:04:10.293Z,80.33
2023-05-15T14:05:14.558Z,80.35